Time;durP1;ratioP1;P1;durP2;ratioP2;P2;SDS_P1;SDS_P2;PMS_P1;PMS_P2;Temp;Humidity;BMP_temperature;BMP_pressure;BME280_temperature;BME280_humidity;BME280_pressure;Samples;Min_cycle;Max_cycle;Signal;HPM_P1;HPM_P2
2022/01/13 00:01:47;;;;;;;9.88;4.57;;;;;;;;;;5024949;28;20044;-40
2022/01/13 00:04:13;;;;;;;7.13;4.93;;;;;;;;;;5024877;28;20037;-37
2022/01/13 00:06:39;;;;;;;7.97;4.15;;;;;;;;;;5024733;28;20117;-40
2022/01/13 00:09:05;;;;;;;6.75;4.90;;;;;;;;;;5024659;28;20057;-39
2022/01/13 00:11:31;;;;;;;8.60;4.40;;;;;;;;;;5025250;28;20033;-39
2022/01/13 00:16:42;;;;;;;8.75;3.97;;;;;;;;;;5025062;28;20770;-38
2022/01/13 00:21:50;;;;;;;7.35;4.45;;;;;;;;;;5024325;28;20084;-38
2022/01/13 00:24:16;;;;;;;8.57;4.85;;;;;;;;;;5024795;28;20045;-36
2022/01/13 00:26:42;;;;;;;7.45;4.80;;;;;;;;;;5024611;28;20087;-38
2022/01/13 00:29:08;;;;;;;7.22;4.40;;;;;;;;;;5024061;28;20022;-38
2022/01/13 00:31:38;;;;;;;7.25;4.85;;;;;;;;;;5024424;28;20037;-40
2022/01/13 00:34:04;;;;;;;6.50;4.50;;;;;;;;;;5027247;28;20044;-37
2022/01/13 00:36:31;;;;;;;6.95;4.85;;;;;;;;;;5028605;28;20026;-38
2022/01/13 00:38:57;;;;;;;6.85;4.57;;;;;;;;;;5028618;28;20040;-39
2022/01/13 00:41:23;;;;;;;6.63;4.55;;;;;;;;;;5028727;28;20038;-36
2022/01/13 00:43:48;;;;;;;7.75;4.72;;;;;;;;;;5028365;28;20037;-37
2022/01/13 00:46:22;;;;;;;5.10;4.05;;;;;;;;;;5027000;28;20036;-41
2022/01/13 00:48:48;;;;;;;6.47;4.70;;;;;;;;;;5027158;28;20022;-38
2022/01/13 00:51:14;;;;;;;8.05;5.28;;;;;;;;;;5028421;28;20025;-38
2022/01/13 00:53:40;;;;;;;5.53;4.07;;;;;;;;;;5028520;28;20099;-40
2022/01/13 00:56:05;;;;;;;7.55;5.05;;;;;;;;;;5028312;28;20058;-40
2022/01/13 00:58:32;;;;;;;6.95;4.85;;;;;;;;;;5010245;28;20480;-38
2022/01/13 01:00:58;;;;;;;7.40;4.90;;;;;;;;;;5027958;28;20116;-38
2022/01/13 01:03:23;;;;;;;5.90;4.68;;;;;;;;;;5027848;28;20168;-39
2022/01/13 01:05:49;;;;;;;7.32;4.75;;;;;;;;;;5028449;28;20113;-36
2022/01/13 01:08:14;;;;;;;5.95;4.88;;;;;;;;;;5027909;28;20492;-37
2022/01/13 01:10:40;;;;;;;7.05;4.68;;;;;;;;;;5028145;28;20037;-40
2022/01/13 01:13:15;;;;;;;7.25;4.78;;;;;;;;;;5028137;28;20028;-38
2022/01/13 01:15:44;;;;;;;6.32;4.72;;;;;;;;;;5027781;28;20025;-38
2022/01/13 01:18:24;;;;;;;5.75;4.60;;;;;;;;;;5027630;28;20033;-39
2022/01/13 01:21:53;;;;;;;6.65;4.60;;;;;;;;;;5028017;28;20375;-39
2022/01/13 01:29:35;;;;;;;5.82;4.70;;;;;;;;;;5047589;28;20071;-38
2022/01/13 01:32:03;;;;;;;8.40;5.32;;;;;;;;;;5046414;28;20068;-40
2022/01/13 01:36:55;;;;;;;6.03;4.88;;;;;;;;;;5047065;28;20032;-40
2022/01/13 01:39:21;;;;;;;6.38;5.20;;;;;;;;;;5047811;28;20540;-39
2022/01/13 01:41:48;;;;;;;5.93;4.68;;;;;;;;;;5046938;28;20036;-39
2022/01/13 01:44:24;;;;;;;6.55;4.88;;;;;;;;;;5046347;28;20033;-39
2022/01/13 01:46:49;;;;;;;6.82;4.47;;;;;;;;;;5046989;28;20033;-40
2022/01/13 01:49:18;;;;;;;6.53;4.95;;;;;;;;;;5047466;28;20102;-41
2022/01/13 01:51:44;;;;;;;5.68;4.60;;;;;;;;;;5047076;28;20070;-40
2022/01/13 01:54:10;;;;;;;6.28;5.13;;;;;;;;;;5047259;28;20043;-41
2022/01/13 01:56:36;;;;;;;6.28;4.57;;;;;;;;;;5046942;28;20636;-41
2022/01/13 01:59:03;;;;;;;6.85;4.70;;;;;;;;;;5047197;28;20029;-37
2022/01/13 02:01:29;;;;;;;6.97;4.80;;;;;;;;;;5046936;28;20139;-38
2022/01/13 02:03:54;;;;;;;6.65;5.05;;;;;;;;;;5046944;28;20384;-39
2022/01/13 02:06:20;;;;;;;6.28;4.65;;;;;;;;;;5046574;28;20024;-38
2022/01/13 02:08:46;;;;;;;6.85;4.65;;;;;;;;;;5044846;28;20056;-41
2022/01/13 02:11:11;;;;;;;7.05;4.97;;;;;;;;;;5046924;28;20036;-39
2022/01/13 02:13:44;;;;;;;8.57;5.15;;;;;;;;;;5046302;28;20502;-37
2022/01/13 02:16:26;;;;;;;;;;;;;;;;;;5047056;28;20494;-38
2022/01/13 02:18:51;;;;;;;6.20;4.88;;;;;;;;;;5046478;28;19916;-38
2022/01/13 02:21:19;;;;;;;6.80;5.00;;;;;;;;;;5046507;28;20036;-40
2022/01/13 02:23:44;;;;;;;7.88;5.15;;;;;;;;;;5046599;28;20402;-40
2022/01/13 02:26:10;;;;;;;6.35;4.20;;;;;;;;;;5046435;28;20025;-39
2022/01/13 02:28:36;;;;;;;6.93;4.95;;;;;;;;;;5046535;28;20037;-37
2022/01/13 02:31:02;;;;;;;5.25;4.43;;;;;;;;;;5046600;28;20017;-35
2022/01/13 02:33:27;;;;;;;4.97;4.38;;;;;;;;;;5045779;28;20033;-36
2022/01/13 02:35:53;;;;;;;7.28;5.22;;;;;;;;;;5046156;28;20020;-37
2022/01/13 02:38:18;;;;;;;6.50;4.57;;;;;;;;;;5045577;28;20108;-39
2022/01/13 02:40:44;;;;;;;6.78;4.78;;;;;;;;;;5046046;28;20399;-37
2022/01/13 02:43:10;;;;;;;5.82;4.65;;;;;;;;;;5046061;28;20032;-35
2022/01/13 02:45:39;;;;;;;5.72;4.07;;;;;;;;;;5045856;28;20621;-40
2022/01/13 02:50:39;;;;;;;7.63;5.00;;;;;;;;;;5045184;28;20036;-41
2022/01/13 02:53:04;;;;;;;5.95;4.28;;;;;;;;;;5045781;28;20037;-41
2022/01/13 02:55:30;;;;;;;5.32;4.25;;;;;;;;;;5045631;28;20032;-38
2022/01/13 02:57:55;;;;;;;5.88;4.40;;;;;;;;;;5045966;28;20612;-40
2022/01/13 03:00:21;;;;;;;6.88;4.53;;;;;;;;;;5045450;28;20040;-39
2022/01/13 03:02:47;;;;;;;6.93;4.95;;;;;;;;;;5046219;28;20434;-37
2022/01/13 03:05:14;;;;;;;5.97;4.38;;;;;;;;;;5045698;28;20515;-39
2022/01/13 03:07:40;;;;;;;5.93;4.45;;;;;;;;;;5046209;28;20033;-38
2022/01/13 03:10:07;;;;;;;5.40;4.35;;;;;;;;;;5045724;28;20056;-37
2022/01/13 03:12:36;;;;;;;5.38;4.28;;;;;;;;;;5026415;28;20108;-39
2022/01/13 03:15:01;;;;;;;6.40;4.53;;;;;;;;;;5045407;28;20031;-40
2022/01/13 03:17:27;;;;;;;4.95;4.05;;;;;;;;;;5045681;28;20032;-34
2022/01/13 03:19:52;;;;;;;5.68;4.25;;;;;;;;;;5045566;28;20554;-39
2022/01/13 03:22:18;;;;;;;6.00;4.43;;;;;;;;;;5045111;28;20475;-36
2022/01/13 03:24:43;;;;;;;5.35;4.47;;;;;;;;;;5044905;28;20422;-37
2022/01/13 03:27:17;;;;;;;6.50;4.72;;;;;;;;;;5045108;28;20025;-38
2022/01/13 03:29:43;;;;;;;6.32;4.55;;;;;;;;;;5045240;28;20491;-41
2022/01/13 03:32:08;;;;;;;5.57;4.40;;;;;;;;;;5045233;28;20032;-36
2022/01/13 03:34:34;;;;;;;5.38;4.35;;;;;;;;;;5045647;28;20411;-34
2022/01/13 03:36:59;;;;;;;6.00;4.72;;;;;;;;;;5045523;28;20025;-43
2022/01/13 03:39:25;;;;;;;5.75;4.28;;;;;;;;;;5045422;28;20043;-40
2022/01/13 03:41:50;;;;;;;6.57;4.63;;;;;;;;;;5045008;28;20033;-40
2022/01/13 03:44:27;;;;;;;6.28;4.18;;;;;;;;;;5044166;28;20040;-40
2022/01/13 03:46:52;;;;;;;5.90;4.60;;;;;;;;;;5045336;28;20112;-38
2022/01/13 03:49:18;;;;;;;5.35;4.57;;;;;;;;;;5044869;28;20465;-40
2022/01/13 03:52:31;;;;;;;6.15;4.70;;;;;;;;;;5045110;28;20032;-37
2022/01/13 03:55:35;;;;;;;5.50;4.47;;;;;;;;;;5045102;28;20037;-36
2022/01/13 03:58:22;;;;;;;5.00;4.30;;;;;;;;;;5042125;28;20040;-41
2022/01/13 04:01:25;;;;;;;5.68;4.30;;;;;;;;;;5045249;28;20075;-39
2022/01/13 04:03:50;;;;;;;4.60;3.63;;;;;;;;;;5044774;28;20029;-38
2022/01/13 04:06:16;;;;;;;5.70;4.55;;;;;;;;;;5045014;28;20113;-39
2022/01/13 04:08:42;;;;;;;5.70;4.38;;;;;;;;;;5038124;28;20141;-40
2022/01/13 04:11:13;;;;;;;5.38;4.60;;;;;;;;;;5024927;28;20439;-40
2022/01/13 04:16:11;;;;;;;5.90;4.60;;;;;;;;;;5024978;28;20030;-40
2022/01/13 04:18:36;;;;;;;5.82;4.80;;;;;;;;;;5023112;28;20025;-40
2022/01/13 04:21:02;;;;;;;5.95;4.65;;;;;;;;;;5024762;28;20036;-37
2022/01/13 04:23:27;;;;;;;7.30;5.28;;;;;;;;;;5024919;28;20028;-37
2022/01/13 04:25:53;;;;;;;5.85;4.68;;;;;;;;;;5024460;28;20966;-35
2022/01/13 04:28:25;;;;;;;5.32;4.47;;;;;;;;;;5024411;28;20108;-39
2022/01/13 04:30:53;;;;;;;5.80;4.57;;;;;;;;;;5024621;28;20534;-38
2022/01/13 04:33:19;;;;;;;6.47;4.60;;;;;;;;;;5024182;28;20030;-39
2022/01/13 04:35:44;;;;;;;4.55;3.85;;;;;;;;;;5024323;28;20036;-40
2022/01/13 04:38:10;;;;;;;6.03;4.63;;;;;;;;;;5024321;28;20455;-39
2022/01/13 04:40:42;;;;;;;5.20;4.43;;;;;;;;;;5023916;28;20083;-36
2022/01/13 04:43:08;;;;;;;6.53;4.68;;;;;;;;;;5024283;28;20120;-40
2022/01/13 04:45:34;;;;;;;5.60;4.53;;;;;;;;;;5024129;28;20133;-38
2022/01/13 04:47:59;;;;;;;5.13;4.10;;;;;;;;;;5024721;28;20030;-38
2022/01/13 04:50:25;;;;;;;6.45;4.85;;;;;;;;;;5024486;28;20036;-39
2022/01/13 04:52:50;;;;;;;6.10;4.93;;;;;;;;;;5024621;28;20025;-38
2022/01/13 04:55:22;;;;;;;6.28;4.97;;;;;;;;;;5024800;28;20467;-40
2022/01/13 04:57:48;;;;;;;5.43;4.50;;;;;;;;;;5024846;28;20037;-38
2022/01/13 05:00:14;;;;;;;5.30;4.72;;;;;;;;;;5024084;28;20025;-40
2022/01/13 05:02:40;;;;;;;5.63;4.72;;;;;;;;;;5029927;28;20502;-40
2022/01/13 05:05:06;;;;;;;5.80;4.57;;;;;;;;;;5043947;28;20056;-39
2022/01/13 05:07:34;;;;;;;5.22;4.50;;;;;;;;;;5043912;28;20565;-39
2022/01/13 05:10:00;;;;;;;6.15;4.88;;;;;;;;;;5043977;28;20047;-38
2022/01/13 05:12:31;;;;;;;5.28;4.43;;;;;;;;;;5043878;28;20029;-40
2022/01/13 05:15:03;;;;;;;6.93;5.13;;;;;;;;;;5044315;28;20538;-38
2022/01/13 05:20:18;;;;;;;7.28;4.43;;;;;;;;;;5046784;28;20040;-38
2022/01/13 05:22:44;;;;;;;6.37;4.63;;;;;;;;;;5047248;28;20033;-39
2022/01/13 05:25:10;;;;;;;6.15;4.93;;;;;;;;;;5027920;28;20511;-37
2022/01/13 05:27:35;;;;;;;5.55;4.78;;;;;;;;;;5028136;28;20029;-40
2022/01/13 05:30:03;;;;;;;6.72;5.10;;;;;;;;;;5027739;28;20045;-38
2022/01/13 05:32:28;;;;;;;6.43;4.82;;;;;;;;;;5027341;28;20035;-36
2022/01/13 05:34:54;;;;;;;5.88;4.47;;;;;;;;;;5030337;28;20034;-35
2022/01/13 05:37:19;;;;;;;5.90;4.88;;;;;;;;;;5040980;28;20042;-40
2022/01/13 05:39:45;;;;;;;9.18;5.32;;;;;;;;;;5039265;28;20056;-40
2022/01/13 05:42:10;;;;;;;12.40;5.35;;;;;;;;;;5027406;28;20044;-43
2022/01/13 05:44:39;;;;;;;9.20;5.18;;;;;;;;;;5027944;28;20099;-40
2022/01/13 05:47:08;;;;;;;8.98;4.97;;;;;;;;;;5028121;28;20104;-37
2022/01/13 05:49:34;;;;;;;15.25;6.22;;;;;;;;;;5027032;28;20057;-36
2022/01/13 05:52:00;;;;;;;9.57;5.78;;;;;;;;;;5027569;28;20419;-39
2022/01/13 05:54:25;;;;;;;19.42;11.30;;;;;;;;;;5036232;28;20064;-38
2022/01/13 05:56:51;;;;;;;17.10;9.07;;;;;;;;;;5042381;28;20040;-40
2022/01/13 05:59:16;;;;;;;14.15;7.40;;;;;;;;;;5044434;28;20068;-35
2022/01/13 06:01:42;;;;;;;10.00;7.38;;;;;;;;;;5044967;28;20539;-37
2022/01/13 06:04:08;;;;;;;14.68;6.85;;;;;;;;;;5043048;28;20083;-38
2022/01/13 06:06:33;;;;;;;9.77;6.80;;;;;;;;;;5043822;28;20065;-41
2022/01/13 06:08:59;;;;;;;15.95;6.57;;;;;;;;;;5043173;28;20127;-40
2022/01/13 06:11:26;;;;;;;10.75;6.88;;;;;;;;;;5042193;28;20045;-34
2022/01/13 06:13:52;;;;;;;15.10;6.97;;;;;;;;;;5043856;28;20032;-40
2022/01/13 06:16:17;;;;;;;10.50;6.85;;;;;;;;;;5042797;28;20036;-40
2022/01/13 06:18:43;;;;;;;12.02;6.75;;;;;;;;;;5040407;28;20029;-38
2022/01/13 06:21:08;;;;;;;16.67;8.05;;;;;;;;;;5031086;28;20554;-39
2022/01/13 06:23:34;;;;;;;9.23;6.43;;;;;;;;;;5046269;28;20035;-38
2022/01/13 06:25:59;;;;;;;13.05;6.35;;;;;;;;;;5046656;28;20028;-37
2022/01/13 06:28:25;;;;;;;9.68;6.43;;;;;;;;;;5039188;28;20484;-39
2022/01/13 06:30:51;;;;;;;14.13;8.50;;;;;;;;;;5025692;28;20048;-32
2022/01/13 06:33:16;;;;;;;19.50;14.18;;;;;;;;;;5034997;28;20029;-40
2022/01/13 06:35:42;;;;;;;17.70;10.60;;;;;;;;;;5046522;28;20540;-38
2022/01/13 06:38:07;;;;;;;14.35;9.80;;;;;;;;;;5043510;28;20060;-40
2022/01/13 06:40:33;;;;;;;15.45;9.05;;;;;;;;;;5045975;28;20426;-34
2022/01/13 06:42:58;;;;;;;355.05;302.65;;;;;;;;;;5045100;28;20047;-37
2022/01/13 06:45:24;;;;;;;807.58;717.72;;;;;;;;;;5040132;28;20033;-37
2022/01/13 06:47:49;;;;;;;410.73;359.83;;;;;;;;;;5033151;28;20094;-39
2022/01/13 06:50:17;;;;;;;311.15;274.13;;;;;;;;;;5044709;28;20121;-36
2022/01/13 06:52:42;;;;;;;279.20;243.40;;;;;;;;;;5045399;28;20560;-36
2022/01/13 06:55:08;;;;;;;288.40;255.48;;;;;;;;;;5046219;28;20031;-39
2022/01/13 06:57:34;;;;;;;302.58;269.20;;;;;;;;;;5046525;28;20120;-38
2022/01/13 06:59:59;;;;;;;304.60;270.77;;;;;;;;;;5046305;28;20643;-39
2022/01/13 07:02:28;;;;;;;302.50;269.08;;;;;;;;;;5044659;28;20029;-39
2022/01/13 07:04:53;;;;;;;295.85;263.23;;;;;;;;;;5044993;28;20033;-35
2022/01/13 07:07:19;;;;;;;281.42;250.27;;;;;;;;;;5044674;28;20031;-37
2022/01/13 07:09:44;;;;;;;272.85;240.80;;;;;;;;;;5042643;28;20473;-38
2022/01/13 07:12:10;;;;;;;266.30;234.40;;;;;;;;;;5044148;28;20539;-38
2022/01/13 07:14:36;;;;;;;250.32;220.57;;;;;;;;;;5044540;28;20032;-40
2022/01/13 07:17:02;;;;;;;242.15;211.93;;;;;;;;;;5045022;28;20208;-40
2022/01/13 07:19:28;;;;;;;224.45;195.02;;;;;;;;;;5044038;28;20041;-40
2022/01/13 07:21:53;;;;;;;224.40;195.95;;;;;;;;;;5045591;28;20025;-37
2022/01/13 07:24:19;;;;;;;213.63;183.93;;;;;;;;;;5045711;28;20148;-38
2022/01/13 07:26:44;;;;;;;215.55;185.18;;;;;;;;;;5045820;28;20130;-36
2022/01/13 07:29:10;;;;;;;207.05;178.45;;;;;;;;;;5045821;28;20082;-36
2022/01/13 07:31:38;;;;;;;199.02;169.57;;;;;;;;;;5045823;28;20053;-40
2022/01/13 07:34:04;;;;;;;196.30;168.10;;;;;;;;;;5045320;28;20132;-35
2022/01/13 07:36:29;;;;;;;192.65;163.55;;;;;;;;;;5044663;28;20029;-39
2022/01/13 07:38:55;;;;;;;185.10;156.35;;;;;;;;;;5045709;28;20406;-39
2022/01/13 07:41:21;;;;;;;177.25;150.32;;;;;;;;;;5045346;28;20029;-40
2022/01/13 07:43:52;;;;;;;170.13;142.88;;;;;;;;;;5044581;28;20033;-39
2022/01/13 07:46:18;;;;;;;166.10;141.38;;;;;;;;;;5027784;28;20785;-39
2022/01/13 07:48:44;;;;;;;166.23;140.93;;;;;;;;;;5025338;28;20090;-37
2022/01/13 07:51:09;;;;;;;163.18;136.52;;;;;;;;;;5024693;28;20033;-43
2022/01/13 07:53:35;;;;;;;159.05;135.15;;;;;;;;;;5025201;28;20075;-40
2022/01/13 07:56:00;;;;;;;153.13;128.27;;;;;;;;;;5026669;28;20083;-37
2022/01/13 07:58:26;;;;;;;149.35;126.38;;;;;;;;;;5025219;28;20036;-37
2022/01/13 08:00:52;;;;;;;147.82;126.50;;;;;;;;;;5025103;28;20025;-40
2022/01/13 08:03:17;;;;;;;141.88;120.30;;;;;;;;;;5024460;28;20032;-39
2022/01/13 08:05:43;;;;;;;137.55;118.40;;;;;;;;;;5025342;28;20397;-39
2022/01/13 08:08:09;;;;;;;128.57;112.05;;;;;;;;;;5024351;28;20036;-34
2022/01/13 08:10:35;;;;;;;133.65;112.20;;;;;;;;;;5025114;28;20516;-39
2022/01/13 08:13:01;;;;;;;127.72;108.60;;;;;;;;;;5025169;28;20029;-38
2022/01/13 08:15:27;;;;;;;132.02;111.50;;;;;;;;;;5024852;28;20108;-36
2022/01/13 08:20:37;;;;;;;123.80;105.10;;;;;;;;;;5025018;28;20307;-37
2022/01/13 08:23:03;;;;;;;119.57;101.60;;;;;;;;;;5024634;28;20025;-36
2022/01/13 08:25:28;;;;;;;111.22;94.65;;;;;;;;;;5024431;28;20026;-36
2022/01/13 08:27:54;;;;;;;111.32;95.00;;;;;;;;;;5024902;28;20036;-35
2022/01/13 08:30:20;;;;;;;111.15;93.07;;;;;;;;;;5024308;28;20032;-39
2022/01/13 08:32:45;;;;;;;106.80;89.60;;;;;;;;;;5024768;28;20022;-39
2022/01/13 08:35:11;;;;;;;105.85;88.55;;;;;;;;;;5024885;28;20028;-37
2022/01/13 08:37:36;;;;;;;102.53;87.38;;;;;;;;;;5025163;28;20109;-37
2022/01/13 08:40:07;;;;;;;96.55;81.90;;;;;;;;;;5025048;28;20136;-37
2022/01/13 08:42:33;;;;;;;102.53;84.53;;;;;;;;;;5024056;28;20411;-39
2022/01/13 08:44:59;;;;;;;96.97;81.38;;;;;;;;;;5024626;28;20030;-37
2022/01/13 08:47:24;;;;;;;93.45;77.90;;;;;;;;;;5024753;28;20435;-39
2022/01/13 08:49:50;;;;;;;92.35;77.10;;;;;;;;;;5030488;28;20122;-40
2022/01/13 08:52:16;;;;;;;91.78;76.22;;;;;;;;;;5044578;28;20048;-37
2022/01/13 08:54:45;;;;;;;88.82;73.43;;;;;;;;;;5046800;28;20037;-40
2022/01/13 08:57:11;;;;;;;87.25;72.10;;;;;;;;;;5048814;28;20108;-35
2022/01/13 08:59:36;;;;;;;85.25;72.15;;;;;;;;;;5048065;28;20108;-39
2022/01/13 09:02:02;;;;;;;80.93;67.72;;;;;;;;;;5031426;28;20037;-36
2022/01/13 09:04:27;;;;;;;80.75;67.57;;;;;;;;;;5028524;28;20133;-37
2022/01/13 09:06:53;;;;;;;80.43;67.13;;;;;;;;;;5028359;28;20419;-36
2022/01/13 09:09:18;;;;;;;77.72;65.30;;;;;;;;;;5028124;28;20045;-34
2022/01/13 09:11:44;;;;;;;68.50;58.60;;;;;;;;;;5028242;28;20445;-37
2022/01/13 09:14:09;;;;;;;71.70;59.00;;;;;;;;;;5028323;28;20026;-40
2022/01/13 09:16:47;;;;;;;71.40;60.53;;;;;;;;;;5026934;28;20029;-34
2022/01/13 09:19:13;;;;;;;72.95;59.85;;;;;;;;;;5028324;28;20053;-39
2022/01/13 09:21:43;;;;;;;74.35;60.47;;;;;;;;;;5028409;28;20021;-40
2022/01/13 09:24:10;;;;;;;72.38;59.17;;;;;;;;;;5028050;28;20594;-38
2022/01/13 09:26:36;;;;;;;66.35;55.42;;;;;;;;;;5027697;28;20701;-36
2022/01/13 09:29:03;;;;;;;67.45;55.28;;;;;;;;;;5027852;28;20034;-39
2022/01/13 09:31:28;;;;;;;64.03;53.22;;;;;;;;;;5027672;28;20053;-39
2022/01/13 09:33:54;;;;;;;63.38;53.00;;;;;;;;;;5026932;28;20612;-35
2022/01/13 09:36:20;;;;;;;59.03;50.55;;;;;;;;;;5027547;28;20037;-38
2022/01/13 09:38:45;;;;;;;63.40;51.25;;;;;;;;;;5028017;28;20104;-40
2022/01/13 09:41:12;;;;;;;63.08;49.88;;;;;;;;;;5037050;28;20553;-36
2022/01/13 09:43:37;;;;;;;60.83;48.03;;;;;;;;;;5045913;28;20098;-39
2022/01/13 09:46:03;;;;;;;60.85;49.47;;;;;;;;;;5047785;28;20037;-38
2022/01/13 09:48:30;;;;;;;57.38;47.45;;;;;;;;;;5046494;28;20447;-35
2022/01/13 09:50:56;;;;;;;54.85;46.15;;;;;;;;;;5047554;28;20388;-39
2022/01/13 09:53:21;;;;;;;53.35;44.72;;;;;;;;;;5046141;28;20037;-34
2022/01/13 09:55:47;;;;;;;55.00;45.15;;;;;;;;;;5047180;28;20057;-39
2022/01/13 09:58:12;;;;;;;52.58;43.72;;;;;;;;;;5047098;28;20033;-38
2022/01/13 10:00:42;;;;;;;54.28;43.63;;;;;;;;;;5046184;28;20036;-33
2022/01/13 10:03:17;;;;;;;50.63;42.72;;;;;;;;;;5047232;28;20089;-38
2022/01/13 10:05:55;;;;;;;50.60;42.15;;;;;;;;;;5045466;28;20035;-39
2022/01/13 10:08:54;;;;;;;48.38;40.47;;;;;;;;;;5046862;28;20052;-34
2022/01/13 10:11:41;;;;;;;47.10;39.08;;;;;;;;;;5045328;28;20105;-40
2022/01/13 10:17:00;;;;;;;;;;;;;;;;;;5006064;28;20045;-37
2022/01/13 10:19:30;;;;;;;45.33;36.63;;;;;;;;;;5046842;28;20559;-40
2022/01/13 10:22:04;;;;;;;43.50;36.58;;;;;;;;;;5047277;28;20032;-34
2022/01/13 10:24:31;;;;;;;45.33;36.45;;;;;;;;;;5046548;28;20037;-37
2022/01/13 10:27:05;;;;;;;43.15;35.03;;;;;;;;;;5046859;28;20029;-37
2022/01/13 10:29:40;;;;;;;44.78;34.58;;;;;;;;;;5046325;28;20087;-38
2022/01/13 10:32:06;;;;;;;41.00;34.15;;;;;;;;;;5046786;28;20028;-39
2022/01/13 10:34:32;;;;;;;38.50;31.45;;;;;;;;;;5046437;28;20063;-40
2022/01/13 10:37:11;;;;;;;40.22;32.75;;;;;;;;;;5045419;28;20447;-41
2022/01/13 10:39:54;;;;;;;36.88;30.95;;;;;;;;;;5046810;28;20041;-40
2022/01/13 10:45:18;;;;;;;39.83;31.60;;;;;;;;;;5046491;28;20147;-40
2022/01/13 10:48:06;;;;;;;38.95;31.55;;;;;;;;;;5045101;28;20021;-36
2022/01/13 10:50:54;;;;;;;35.40;30.10;;;;;;;;;;5045124;28;20033;-37
2022/01/13 10:53:29;;;;;;;35.05;29.23;;;;;;;;;;5046376;28;20029;-37
2022/01/13 10:56:11;;;;;;;34.35;28.23;;;;;;;;;;5045660;28;20036;-37
2022/01/13 10:58:42;;;;;;;35.10;28.60;;;;;;;;;;5045906;28;20060;-36
2022/01/13 11:01:13;;;;;;;33.15;27.70;;;;;;;;;;5046455;28;20032;-40
2022/01/13 11:03:39;;;;;;;34.00;27.25;;;;;;;;;;5044783;28;20518;-38
2022/01/13 11:06:06;;;;;;;31.13;26.70;;;;;;;;;;5046010;28;20737;-38
2022/01/13 11:08:40;;;;;;;29.20;25.30;;;;;;;;;;5045902;28;20045;-38
2022/01/13 11:11:06;;;;;;;31.65;26.75;;;;;;;;;;5044739;28;20044;-39
2022/01/13 11:13:36;;;;;;;32.55;27.30;;;;;;;;;;5045129;28;20346;-39
2022/01/13 11:16:02;;;;;;;30.80;25.35;;;;;;;;;;5044500;28;20086;-36
2022/01/13 11:18:30;;;;;;;30.85;25.38;;;;;;;;;;5045015;28;20469;-39
2022/01/13 11:20:56;;;;;;;29.23;24.90;;;;;;;;;;5045766;28;20024;-39
2022/01/13 11:23:21;;;;;;;28.48;24.38;;;;;;;;;;5044489;28;20029;-38
2022/01/13 11:25:51;;;;;;;28.65;23.67;;;;;;;;;;5045666;28;20499;-38
2022/01/13 11:28:17;;;;;;;29.05;23.77;;;;;;;;;;5046178;28;20025;-40
2022/01/13 11:30:43;;;;;;;27.88;22.77;;;;;;;;;;5045543;28;20434;-38
2022/01/13 11:33:08;;;;;;;27.42;23.92;;;;;;;;;;5045708;28;20545;-34
2022/01/13 11:35:45;;;;;;;27.85;23.85;;;;;;;;;;5045492;28;20048;-36
2022/01/13 11:38:11;;;;;;;28.95;23.50;;;;;;;;;;5045701;28;20024;-38
2022/01/13 11:40:46;;;;;;;25.65;21.88;;;;;;;;;;5043286;28;20426;-37
2022/01/13 11:43:30;;;;;;;26.33;21.40;;;;;;;;;;5045518;28;20035;-39
2022/01/13 11:45:55;;;;;;;25.40;21.42;;;;;;;;;;5045272;28;20059;-35
2022/01/13 11:48:26;;;;;;;23.80;20.58;;;;;;;;;;5043766;28;20033;-38
2022/01/13 11:50:55;;;;;;;26.52;21.70;;;;;;;;;;5045365;28;20271;-38
2022/01/13 11:53:26;;;;;;;24.17;19.77;;;;;;;;;;5045058;28;20048;-33
2022/01/13 11:56:00;;;;;;;27.02;22.27;;;;;;;;;;5045001;28;20139;-39
2022/01/13 11:58:31;;;;;;;26.30;21.23;;;;;;;;;;5043713;28;20029;-38
2022/01/13 12:01:06;;;;;;;23.98;20.13;;;;;;;;;;5045497;28;20040;-39
2022/01/13 12:03:33;;;;;;;22.98;19.13;;;;;;;;;;5044258;28;20032;-36
2022/01/13 12:06:03;;;;;;;23.20;19.25;;;;;;;;;;5044405;28;20480;-38
2022/01/13 12:08:38;;;;;;;22.25;18.77;;;;;;;;;;5044224;28;20087;-38
2022/01/13 12:11:04;;;;;;;23.23;19.33;;;;;;;;;;5043264;28;20029;-35
2022/01/13 12:13:34;;;;;;;23.25;19.65;;;;;;;;;;5043986;28;20047;-36
2022/01/13 12:16:00;;;;;;;22.45;19.15;;;;;;;;;;5044836;28;20523;-38
2022/01/13 12:18:44;;;;;;;24.10;19.52;;;;;;;;;;5043528;28;20025;-39
2022/01/13 12:21:31;;;;;;;23.17;18.63;;;;;;;;;;5044955;28;20488;-38
2022/01/13 12:23:57;;;;;;;21.80;17.65;;;;;;;;;;5045300;28;20063;-35
2022/01/13 12:26:34;;;;;;;22.85;19.20;;;;;;;;;;5044404;28;20029;-40
2022/01/13 12:29:18;;;;;;;20.83;17.13;;;;;;;;;;5047947;28;20855;-39
2022/01/13 12:32:03;;;;;;;21.65;17.55;;;;;;;;;;5051465;28;20111;-40
2022/01/13 12:34:29;;;;;;;21.98;17.88;;;;;;;;;;5050689;28;20029;-37
2022/01/13 12:37:15;;;;;;;22.67;18.42;;;;;;;;;;5050216;28;20033;-37
2022/01/13 12:39:52;;;;;;;22.45;17.83;;;;;;;;;;5046951;28;20044;-38
2022/01/13 12:42:22;;;;;;;22.70;18.08;;;;;;;;;;5051195;28;20071;-40
2022/01/13 12:45:48;;;;;;;22.60;17.35;;;;;;;;;;5051327;28;20037;-40
2022/01/13 12:47:42;;;;;;;19.73;16.38;;;;;;;;;;5042041;28;20091;-36
2022/01/13 12:50:16;;;;;;;18.77;15.93;;;;;;;;;;5051411;28;20052;-40
2022/01/13 12:52:41;;;;;;;18.38;15.73;;;;;;;;;;5051046;28;20396;-37
2022/01/13 12:55:07;;;;;;;18.25;14.95;;;;;;;;;;5051576;28;20025;-38
2022/01/13 12:57:32;;;;;;;19.83;16.00;;;;;;;;;;5051182;28;20025;-39
2022/01/13 12:59:58;;;;;;;19.27;15.68;;;;;;;;;;5051383;28;20029;-35
2022/01/13 13:02:23;;;;;;;19.48;15.45;;;;;;;;;;5051106;28;20111;-39
2022/01/13 13:04:49;;;;;;;18.63;15.23;;;;;;;;;;5051268;28;20029;-38
2022/01/13 13:07:15;;;;;;;17.73;14.63;;;;;;;;;;5050713;28;20552;-41
2022/01/13 13:09:40;;;;;;;17.98;14.55;;;;;;;;;;5050240;28;20443;-39
2022/01/13 13:12:11;;;;;;;18.10;14.55;;;;;;;;;;5049794;28;20033;-39
2022/01/13 13:17:45;;;;;;;16.10;13.23;;;;;;;;;;5029119;28;20037;-40
2022/01/13 13:20:34;;;;;;;18.23;15.25;;;;;;;;;;5051144;28;20033;-38
2022/01/13 13:23:03;;;;;;;18.42;14.90;;;;;;;;;;5050726;28;20503;-34
2022/01/13 13:25:33;;;;;;;17.25;14.05;;;;;;;;;;5050219;28;20036;-39
2022/01/13 13:28:25;;;;;;;15.88;13.50;;;;;;;;;;5050925;28;20025;-40
2022/01/13 13:31:20;;;;;;;15.70;13.35;;;;;;;;;;5050704;28;20025;-39
2022/01/13 13:33:59;;;;;;;17.17;14.02;;;;;;;;;;5047724;28;20044;-41
2022/01/13 13:36:30;;;;;;;15.38;13.45;;;;;;;;;;5050568;28;20033;-39
2022/01/13 13:38:57;;;;;;;15.43;13.35;;;;;;;;;;5050983;28;20040;-39
2022/01/13 13:41:33;;;;;;;15.93;13.38;;;;;;;;;;5039027;28;20030;-38
2022/01/13 13:43:59;;;;;;;15.25;12.75;;;;;;;;;;5027716;28;20116;-39
2022/01/13 13:46:24;;;;;;;15.18;13.38;;;;;;;;;;5027399;28;20163;-39
2022/01/13 13:48:50;;;;;;;15.95;12.85;;;;;;;;;;5027775;28;20045;-40
2022/01/13 13:51:23;;;;;;;14.60;12.40;;;;;;;;;;5027898;28;20022;-36
2022/01/13 13:54:14;;;;;;;13.27;11.55;;;;;;;;;;5028200;28;20026;-40
2022/01/13 13:56:48;;;;;;;15.93;12.90;;;;;;;;;;5026858;28;20029;-36
2022/01/13 13:59:25;;;;;;;14.73;12.02;;;;;;;;;;5027385;28;20056;-40
2022/01/13 14:02:05;;;;;;;13.80;11.60;;;;;;;;;;5027505;28;20068;-39
2022/01/13 14:04:36;;;;;;;15.25;13.10;;;;;;;;;;5027429;28;20103;-40
2022/01/13 14:07:01;;;;;;;13.60;11.60;;;;;;;;;;5026795;28;20087;-33
2022/01/13 14:09:37;;;;;;;12.90;11.05;;;;;;;;;;5026812;28;20474;-39
2022/01/13 14:12:03;;;;;;;13.80;11.15;;;;;;;;;;5027404;28;20025;-40
2022/01/13 14:14:35;;;;;;;13.43;11.13;;;;;;;;;;5026941;28;20427;-41
2022/01/13 14:17:00;;;;;;;12.88;11.10;;;;;;;;;;5027278;28;20112;-39
2022/01/13 14:19:26;;;;;;;12.82;11.20;;;;;;;;;;5027226;28;20383;-41
2022/01/13 14:21:52;;;;;;;12.52;10.63;;;;;;;;;;5027030;28;20483;-39
2022/01/13 14:24:35;;;;;;;12.52;10.25;;;;;;;;;;5026800;28;20099;-38
2022/01/13 14:27:19;;;;;;;13.45;11.48;;;;;;;;;;5026683;28;20037;-35
2022/01/13 14:29:50;;;;;;;12.88;11.27;;;;;;;;;;5026183;28;20484;-44
2022/01/13 14:32:16;;;;;;;13.43;10.95;;;;;;;;;;5045369;28;20029;-38
2022/01/13 14:34:49;;;;;;;11.55;9.93;;;;;;;;;;5045452;28;20119;-32
2022/01/13 14:37:15;;;;;;;13.32;10.95;;;;;;;;;;5040890;28;20117;-39
2022/01/13 14:39:40;;;;;;;12.70;10.68;;;;;;;;;;5043128;28;20116;-40
2022/01/13 14:42:14;;;;;;;12.88;10.73;;;;;;;;;;5044710;28;20493;-36
2022/01/13 14:44:39;;;;;;;11.77;10.50;;;;;;;;;;5040836;28;20047;-39
2022/01/13 14:47:05;;;;;;;14.35;10.38;;;;;;;;;;5044593;28;20037;-39
2022/01/13 14:49:35;;;;;;;12.63;10.18;;;;;;;;;;5045699;28;20025;-39
2022/01/13 14:52:04;;;;;;;12.70;9.75;;;;;;;;;;5044739;28;20029;-41
2022/01/13 14:54:31;;;;;;;13.27;10.98;;;;;;;;;;5045288;28;20063;-39
2022/01/13 14:56:59;;;;;;;12.32;10.15;;;;;;;;;;5046038;28;20036;-38
2022/01/13 14:59:24;;;;;;;13.45;11.27;;;;;;;;;;5045655;28;20402;-39
2022/01/13 15:01:50;;;;;;;13.68;11.00;;;;;;;;;;5045717;28;20033;-40
2022/01/13 15:04:16;;;;;;;14.45;11.27;;;;;;;;;;5045270;28;20138;-41
2022/01/13 15:06:41;;;;;;;15.05;10.80;;;;;;;;;;5045096;28;20603;-40
2022/01/13 15:09:07;;;;;;;13.20;10.57;;;;;;;;;;5044545;28;20561;-36